Time;durP1;ratioP1;P1;durP2;ratioP2;P2;SDS_P1;SDS_P2;PMS_P1;PMS_P2;Temp;Humidity;BMP_temperature;BMP_pressure;BME280_temperature;BME280_humidity;BME280_pressure;Samples;Min_cycle;Max_cycle;Signal;HPM_P1;HPM_P2
2023/08/10 00:01:02;;;;;;;2.80;2.40;;;;;;;16.96;100.00;100034.13;104410;1256;73409;-67
2023/08/10 00:03:30;;;;;;;4.10;2.50;;;;;;;16.97;100.00;100033.55;104496;1251;61815;-71
2023/08/10 00:05:56;;;;;;;3.00;2.00;;;;;;;16.97;100.00;100030.38;104306;1271;59787;-68
2023/08/10 00:08:23;;;;;;;2.40;2.00;;;;;;;16.95;100.00;100029.05;104297;1256;72558;-67
2023/08/10 00:10:50;;;;;;;4.20;3.00;;;;;;;16.91;100.00;100031.09;104261;1275;69729;-66
2023/08/10 00:13:17;;;;;;;4.10;2.60;;;;;;;16.90;100.00;100030.09;104438;1253;72607;-66
2023/08/10 00:15:44;;;;;;;4.10;2.40;;;;;;;16.90;100.00;100034.34;104283;1274;61754;-66
2023/08/10 00:18:14;;;;;;;2.50;2.30;;;;;;;16.90;100.00;100035.04;104302;1252;60557;-67
2023/08/10 00:20:41;;;;;;;2.90;2.60;;;;;;;16.93;100.00;100034.88;104285;1253;73520;-67
2023/08/10 00:23:10;;;;;;;6.40;2.50;;;;;;;16.88;100.00;100035.31;104639;1256;69399;-67
2023/08/10 00:25:37;;;;;;;3.60;2.30;;;;;;;16.81;100.00;100035.94;104300;1275;72202;-67
2023/08/10 00:28:04;;;;;;;3.50;2.70;;;;;;;16.75;100.00;100038.27;104242;1256;61026;-68
2023/08/10 00:30:31;;;;;;;6.10;2.70;;;;;;;16.72;100.00;100042.84;104270;1265;60816;-67
2023/08/10 00:32:58;;;;;;;3.70;2.60;;;;;;;16.71;100.00;100039.23;104464;1255;74626;-67
2023/08/10 00:35:25;;;;;;;3.90;2.50;;;;;;;16.67;100.00;100037.54;104423;1256;69691;-67
2023/08/10 00:37:52;;;;;;;3.90;2.30;;;;;;;16.63;100.00;100037.95;104242;1275;73302;-68
2023/08/10 00:40:19;;;;;;;4.50;2.70;;;;;;;16.62;100.00;100037.99;104243;1275;61710;-68
2023/08/10 00:42:46;;;;;;;3.10;2.40;;;;;;;16.63;100.00;100037.39;104394;1258;60556;-69
2023/08/10 00:45:13;;;;;;;4.20;2.60;;;;;;;16.63;100.00;100040.07;104286;1252;73728;-68
2023/08/10 00:47:42;;;;;;;3.10;2.70;;;;;;;16.62;100.00;100042.05;104435;1258;70484;-69
2023/08/10 00:50:09;;;;;;;4.80;2.30;;;;;;;16.63;100.00;100038.31;104282;1257;72416;-68
2023/08/10 00:52:36;;;;;;;2.30;2.20;;;;;;;16.62;100.00;100044.52;104463;1253;61610;-69
2023/08/10 00:55:04;;;;;;;4.50;3.00;;;;;;;16.59;100.00;100046.65;105832;1255;60576;-69
2023/08/10 00:57:31;;;;;;;2.40;2.20;;;;;;;16.54;100.00;100044.81;104355;1265;73418;-68
2023/08/10 00:59:58;;;;;;;3.10;2.80;;;;;;;16.49;100.00;100049.42;108059;1255;69116;-69
2023/08/10 01:02:24;;;;;;;3.10;2.50;;;;;;;16.42;100.00;100052.48;104368;1275;72493;-68
2023/08/10 01:04:51;;;;;;;6.10;2.90;;;;;;;16.37;100.00;100059.69;104377;1273;62564;-67
2023/08/10 01:07:22;;;;;;;6.00;2.70;;;;;;;16.32;100.00;100063.54;104483;1272;59896;-69
2023/08/10 01:10:06;;;;;;;5.40;2.50;;;;;;;16.31;100.00;100065.89;104919;1255;73541;-69
2023/08/10 01:12:49;;;;;;;3.20;2.40;;;;;;;16.29;100.00;100069.18;104401;1258;68446;-68
2023/08/10 01:15:21;;;;;;;2.90;2.70;;;;;;;16.27;100.00;100070.36;104198;1275;73813;-69
2023/08/10 01:17:55;;;;;;;3.50;2.60;;;;;;;16.25;100.00;100071.05;104313;1275;61871;-68
2023/08/10 01:20:22;;;;;;;3.90;2.80;;;;;;;16.25;100.00;100075.61;105431;1255;60466;-68
2023/08/10 01:22:51;;;;;;;3.00;2.60;;;;;;;16.28;100.00;100078.83;104790;1252;74818;-70
2023/08/10 01:25:19;;;;;;;3.70;2.80;;;;;;;16.27;100.00;100074.95;104416;1275;70282;-69
2023/08/10 01:27:46;;;;;;;6.60;3.30;;;;;;;16.25;100.00;100076.17;104456;1256;73080;-68
2023/08/10 01:30:13;;;;;;;3.10;2.80;;;;;;;16.23;100.00;100076.27;105092;1256;61119;-66
2023/08/10 01:32:40;;;;;;;7.70;3.40;;;;;;;16.23;100.00;100072.73;104512;1259;60495;-68
2023/08/10 01:35:07;;;;;;;5.20;3.00;;;;;;;16.23;100.00;100074.70;104701;1259;74418;-66
2023/08/10 01:37:34;;;;;;;4.70;2.70;;;;;;;16.19;100.00;100070.99;104247;1275;70117;-67
2023/08/10 01:40:01;;;;;;;3.70;3.30;;;;;;;16.18;100.00;100068.78;104289;1257;70919;-67
2023/08/10 01:42:28;;;;;;;4.80;3.00;;;;;;;16.18;100.00;100071.60;104929;1256;62492;-67
2023/08/10 01:44:55;;;;;;;3.70;3.10;;;;;;;16.20;100.00;100073.95;104257;1256;60538;-66
2023/08/10 01:47:32;;;;;;;3.60;2.70;;;;;;;16.22;100.00;100075.44;104200;1257;73312;-66
2023/08/10 01:50:00;;;;;;;3.80;3.40;;;;;;;16.25;100.00;100079.54;104444;1256;69217;-67
2023/08/10 01:52:57;;;;;;;3.50;3.00;;;;;;;16.25;100.00;100079.67;104486;1256;72229;-67
2023/08/10 01:55:23;;;;;;;4.60;2.90;;;;;;;16.24;100.00;100084.17;104294;1256;61481;-69
2023/08/10 01:57:50;;;;;;;3.70;2.90;;;;;;;16.24;100.00;100084.31;104341;1257;60651;-67
2023/08/10 02:00:17;;;;;;;3.90;2.70;;;;;;;16.23;100.00;100086.02;104893;1256;73579;-67
2023/08/10 02:02:46;;;;;;;4.20;2.60;;;;;;;16.22;100.00;100083.77;104453;1257;69111;-68
2023/08/10 02:05:13;;;;;;;3.00;2.70;;;;;;;16.20;100.00;100088.46;104316;1255;71717;-67
2023/08/10 02:07:41;;;;;;;3.50;2.90;;;;;;;16.19;100.00;100087.46;104271;1254;61979;-69
2023/08/10 02:10:12;;;;;;;3.00;2.30;;;;;;;16.21;100.00;100087.20;104400;1267;60414;-69
2023/08/10 02:12:39;;;;;;;5.10;2.90;;;;;;;16.21;100.00;100086.30;104216;1275;74248;-68
2023/08/10 02:15:06;;;;;;;5.20;3.00;;;;;;;16.22;100.00;100083.59;104378;1260;68568;-68
2023/08/10 02:17:36;;;;;;;3.20;2.90;;;;;;;16.21;100.00;100090.00;104244;1256;71735;-67
2023/08/10 02:20:13;;;;;;;3.10;2.80;;;;;;;16.21;100.00;100090.39;104318;1272;61845;-67
2023/08/10 02:22:53;;;;;;;4.90;3.10;;;;;;;16.20;100.00;100093.27;105207;1251;60732;-68
2023/08/10 02:25:20;;;;;;;3.90;2.90;;;;;;;16.14;100.00;100094.98;108550;1251;72742;-68
2023/08/10 02:27:48;;;;;;;3.80;2.70;;;;;;;16.06;100.00;100095.30;104499;1256;69122;-67
2023/08/10 02:30:16;;;;;;;6.90;3.00;;;;;;;16.01;100.00;100098.63;104552;1273;71602;-67
2023/08/10 02:32:44;;;;;;;3.20;2.70;;;;;;;15.97;100.00;100094.80;104400;1275;60741;-68
2023/08/10 02:35:11;;;;;;;3.40;3.00;;;;;;;16.01;100.00;100102.48;104460;1255;60454;-68
2023/08/10 02:37:38;;;;;;;5.30;3.10;;;;;;;16.00;100.00;100102.89;104441;1257;73467;-67
2023/08/10 02:40:11;;;;;;;3.70;3.00;;;;;;;16.00;100.00;100105.04;104318;1254;69712;-67
2023/08/10 02:42:38;;;;;;;4.00;3.20;;;;;;;15.99;100.00;100106.69;104267;1275;73125;-66
2023/08/10 02:45:07;;;;;;;4.50;3.70;;;;;;;15.98;100.00;100112.91;104335;1253;62010;-66
2023/08/10 02:47:34;;;;;;;4.10;3.30;;;;;;;16.00;100.00;100112.45;104375;1251;60552;-66
2023/08/10 02:50:02;;;;;;;3.40;3.00;;;;;;;16.02;100.00;100112.87;104273;1255;74323;-66
2023/08/10 02:52:29;;;;;;;3.80;3.40;;;;;;;16.02;100.00;100114.83;104380;1251;69817;-67
2023/08/10 02:54:56;;;;;;;7.70;3.30;;;;;;;15.98;100.00;100115.75;104352;1256;72149;-65
2023/08/10 02:57:23;;;;;;;7.50;3.90;;;;;;;15.96;100.00;100118.15;104434;1257;62086;-64
2023/08/10 02:59:50;;;;;;;6.40;3.70;;;;;;;15.97;100.00;100116.52;104511;1255;60558;-67
2023/08/10 03:02:17;;;;;;;5.20;3.70;;;;;;;15.96;100.00;100114.98;105971;1253;73977;-66
2023/08/10 03:04:44;;;;;;;3.60;3.30;;;;;;;15.97;100.00;100119.02;105868;1256;69655;-67
2023/08/10 03:07:14;;;;;;;3.90;3.30;;;;;;;15.97;100.00;100121.99;104444;1257;73336;-66
2023/08/10 03:09:41;;;;;;;4.80;3.40;;;;;;;15.98;100.00;100121.03;104576;1251;61926;-68
2023/08/10 03:12:09;;;;;;;6.10;3.70;;;;;;;16.02;100.00;100125.61;104447;1269;60497;-66
2023/08/10 03:14:36;;;;;;;4.50;4.00;;;;;;;16.05;100.00;100130.01;104482;1254;73054;-66
2023/08/10 03:17:04;;;;;;;5.10;3.50;;;;;;;16.07;100.00;100129.34;104282;1275;70050;-68
2023/08/10 03:19:31;;;;;;;9.20;3.10;;;;;;;16.11;100.00;100130.35;104294;1258;72529;-66
2023/08/10 03:21:58;;;;;;;4.10;3.20;;;;;;;16.16;100.00;100135.73;104425;1255;61879;-64
2023/08/10 03:24:25;;;;;;;4.20;3.30;;;;;;;16.19;100.00;100135.22;108560;1251;59879;-63
2023/08/10 03:26:52;;;;;;;5.30;3.20;;;;;;;16.22;100.00;100137.52;107260;1255;74211;-66
2023/08/10 03:29:19;;;;;;;4.40;3.20;;;;;;;16.24;100.00;100135.63;105159;1251;69217;-62
2023/08/10 03:31:46;;;;;;;3.80;3.30;;;;;;;16.28;100.00;100138.25;104555;1256;71460;-62
2023/08/10 03:34:14;;;;;;;4.70;3.70;;;;;;;16.31;100.00;100139.46;104281;1275;61364;-61
2023/08/10 03:36:41;;;;;;;3.90;3.40;;;;;;;16.37;100.00;100142.65;105300;1251;62381;-62
2023/08/10 03:39:08;;;;;;;8.80;3.40;;;;;;;16.43;100.00;100137.73;104371;1274;74534;-62
2023/08/10 03:41:35;;;;;;;4.70;3.00;;;;;;;16.48;100.00;100140.61;104769;1257;70022;-61
2023/08/10 03:44:02;;;;;;;5.70;3.70;;;;;;;16.53;100.00;100142.77;104268;1274;72638;-62
2023/08/10 03:46:29;;;;;;;6.10;3.60;;;;;;;16.61;100.00;100138.92;104329;1250;61635;-63
2023/08/10 03:48:56;;;;;;;4.00;3.60;;;;;;;16.67;100.00;100136.77;104253;1256;59858;-62
2023/08/10 03:51:24;;;;;;;4.90;3.60;;;;;;;16.74;100.00;100136.73;104272;1257;74266;-61
2023/08/10 03:53:50;;;;;;;7.20;3.60;;;;;;;16.83;100.00;100138.52;104352;1257;70372;-63
2023/08/10 03:56:21;;;;;;;5.10;3.40;;;;;;;16.91;100.00;100140.72;104388;1252;73109;-64
2023/08/10 03:58:48;;;;;;;4.90;3.60;;;;;;;16.97;100.00;100141.22;104404;1258;60876;-64
2023/08/10 04:01:15;;;;;;;7.50;3.80;;;;;;;17.04;100.00;100138.45;104247;1254;60553;-65
2023/08/10 04:03:42;;;;;;;4.70;3.90;;;;;;;17.12;100.00;100133.40;104387;1266;73956;-65
2023/08/10 04:06:09;;;;;;;8.30;4.10;;;;;;;17.22;100.00;100134.58;104756;1251;69270;-60
2023/08/10 04:08:36;;;;;;;4.20;3.90;;;;;;;17.29;100.00;100137.10;104284;1257;72729;-63
2023/08/10 04:11:03;;;;;;;6.10;3.80;;;;;;;17.35;100.00;100138.54;104281;1274;61737;-61
2023/08/10 04:13:30;;;;;;;7.50;3.60;;;;;;;17.38;100.00;100139.02;104193;1271;60009;-65
2023/08/10 04:15:57;;;;;;;3.20;2.90;;;;;;;17.41;100.00;100136.16;104224;1258;74252;-62
2023/08/10 04:18:23;;;;;;;5.50;3.80;;;;;;;17.46;100.00;100134.80;104327;1262;69993;-62
2023/08/10 04:20:51;;;;;;;5.20;3.60;;;;;;;17.54;100.00;100132.00;104459;1257;73202;-61
2023/08/10 04:23:19;;;;;;;4.90;3.80;;;;;;;17.62;100.00;100132.86;105818;1251;61730;-65
2023/08/10 04:25:45;;;;;;;4.50;3.90;;;;;;;17.75;100.00;100128.30;108566;1251;59912;-65
2023/08/10 04:28:12;;;;;;;6.40;3.40;;;;;;;17.87;100.00;100131.84;106282;1254;72703;-64
2023/08/10 04:30:39;;;;;;;3.80;3.50;;;;;;;18.00;100.00;100137.75;104839;1257;68583;-64
2023/08/10 04:33:06;;;;;;;5.90;3.70;;;;;;;18.15;100.00;100139.23;104809;1255;72113;-64
2023/08/10 04:35:33;;;;;;;3.80;3.20;;;;;;;18.28;100.00;100140.30;104662;1254;61621;-65
2023/08/10 04:38:00;;;;;;;4.60;3.60;;;;;;;18.40;100.00;100140.03;104430;1259;60557;-60
2023/08/10 04:40:27;;;;;;;6.60;3.60;;;;;;;18.52;100.00;100135.87;104280;1256;74242;-60
2023/08/10 04:42:54;;;;;;;5.10;4.20;;;;;;;18.62;100.00;100137.68;104324;1253;69138;-61
2023/08/10 04:45:20;;;;;;;5.70;3.80;;;;;;;18.72;100.00;100143.70;104313;1254;72319;-63
2023/08/10 04:47:48;;;;;;;5.20;3.30;;;;;;;18.87;100.00;100141.65;104320;1257;60885;-65
2023/08/10 04:50:15;;;;;;;5.60;3.90;;;;;;;19.01;100.00;100144.39;104305;1254;60451;-65
2023/08/10 04:52:42;;;;;;;5.00;4.50;;;;;;;19.17;100.00;100144.01;104292;1257;74153;-66
2023/08/10 04:55:10;;;;;;;8.40;3.30;;;;;;;19.24;100.00;100143.88;104264;1251;70454;-67
2023/08/10 04:57:38;;;;;;;6.50;3.50;;;;;;;19.35;100.00;100141.46;104221;1275;73228;-67
2023/08/10 05:00:09;;;;;;;7.40;3.30;;;;;;;19.48;100.00;100143.37;104194;1275;61493;-65
2023/08/10 05:02:36;;;;;;;5.80;3.50;;;;;;;19.67;100.00;100145.23;104413;1267;60569;-67
2023/08/10 05:05:04;;;;;;;3.90;3.10;;;;;;;19.77;100.00;100142.95;108522;1251;73580;-67
2023/08/10 05:07:31;;;;;;;5.00;2.90;;;;;;;19.86;100.00;100145.64;107514;1251;68240;-67
2023/08/10 05:10:01;;;;;;;4.90;3.60;;;;;;;19.96;100.00;100148.30;104894;1251;72462;-63
2023/08/10 05:12:32;;;;;;;3.50;3.00;;;;;;;20.07;100.00;100148.73;104726;1251;61575;-61
2023/08/10 05:14:59;;;;;;;5.10;3.10;;;;;;;20.16;100.00;100155.02;104723;1256;61163;-61
2023/08/10 05:17:26;;;;;;;3.10;2.80;;;;;;;20.15;100.00;100154.20;104933;1256;72371;-61
2023/08/10 05:19:53;;;;;;;8.00;3.20;;;;;;;20.18;100.00;100154.86;104275;1263;69739;-61
2023/08/10 05:22:21;;;;;;;3.50;3.00;;;;;;;20.23;100.00;100155.56;104234;1254;72132;-65
2023/08/10 05:24:47;;;;;;;3.10;2.80;;;;;;;20.28;100.00;100157.45;106792;1251;64162;-62
2023/08/10 05:27:14;;;;;;;3.40;3.00;;;;;;;20.37;100.00;100160.00;108596;1251;59767;-63
2023/08/10 05:29:41;;;;;;;4.20;2.90;;;;;;;20.43;100.00;100156.87;108615;1251;73656;-63
2023/08/10 05:32:08;;;;;;;5.80;3.20;;;;;;;20.51;100.00;100161.48;108517;1251;68506;-63
2023/08/10 05:34:35;;;;;;;3.30;3.00;;;;;;;20.57;100.00;100161.67;107778;1253;71391;-63
2023/08/10 05:37:02;;;;;;;2.80;2.50;;;;;;;20.61;100.00;100160.69;104289;1264;61586;-61
2023/08/10 05:39:29;;;;;;;3.40;2.70;;;;;;;20.65;100.00;100160.05;104648;1251;60444;-61
2023/08/10 05:41:56;;;;;;;5.70;3.00;;;;;;;20.68;100.00;100156.44;104318;1274;74263;-61
2023/08/10 05:44:23;;;;;;;4.70;2.60;;;;;;;20.70;100.00;100154.33;104256;1274;69956;-62
2023/08/10 05:46:49;;;;;;;3.20;2.90;;;;;;;20.73;100.00;100153.54;104462;1271;72346;-61
2023/08/10 05:49:18;;;;;;;2.50;2.30;;;;;;;20.77;100.00;100152.02;104196;1254;60814;-61
2023/08/10 05:51:45;;;;;;;3.10;2.70;;;;;;;20.83;100.00;100154.45;104272;1267;60457;-62
2023/08/10 05:54:12;;;;;;;5.10;3.10;;;;;;;20.88;100.00;100153.31;104616;1254;74684;-62
2023/08/10 05:56:40;;;;;;;5.30;2.80;;;;;;;20.96;100.00;100155.19;104371;1264;70420;-61
2023/08/10 05:59:07;;;;;;;3.40;2.80;;;;;;;21.05;100.00;100153.62;104366;1268;72085;-61
2023/08/10 06:01:34;;;;;;;5.20;3.60;;;;;;;21.13;100.00;100157.00;104531;1257;61806;-62
2023/08/10 06:04:02;;;;;;;5.10;3.60;;;;;;;21.23;100.00;100155.55;104312;1256;60534;-64
2023/08/10 06:06:30;;;;;;;6.70;3.90;;;;;;;21.30;100.00;100155.55;104673;1251;72983;-62
2023/08/10 06:08:56;;;;;;;4.10;3.60;;;;;;;21.39;100.00;100161.38;104334;1255;70153;-61
2023/08/10 06:11:23;;;;;;;4.00;3.40;;;;;;;21.50;100.00;100160.74;104498;1266;72380;-62
2023/08/10 06:14:04;;;;;;;4.40;3.30;;;;;;;21.60;100.00;100164.07;104365;1257;61543;-64
2023/08/10 06:16:31;;;;;;;7.90;3.10;;;;;;;21.70;100.00;100157.88;104489;1251;60556;-62
2023/08/10 06:18:58;;;;;;;5.30;3.10;;;;;;;21.82;100.00;100153.75;104456;1261;73538;-62
2023/08/10 06:21:24;;;;;;;4.80;3.00;;;;;;;21.90;100.00;100152.00;104494;1251;70239;-62
2023/08/10 06:23:51;;;;;;;6.00;2.40;;;;;;;21.99;100.00;100146.92;104655;1261;72985;-61
2023/08/10 06:26:18;;;;;;;3.50;2.50;;;;;;;22.13;100.00;100146.83;108500;1251;61950;-64
2023/08/10 06:28:44;;;;;;;3.20;2.40;;;;;;;22.27;100.00;100141.42;107927;1251;58884;-64
2023/08/10 06:31:13;;;;;;;3.20;2.40;;;;;;;22.38;100.00;100143.73;105080;1251;74504;-65
2023/08/10 06:33:40;;;;;;;3.70;2.70;;;;;;;22.51;100.00;100139.77;105240;1254;69384;-62
2023/08/10 06:36:07;;;;;;;5.50;2.90;;;;;;;22.64;100.00;100135.16;105207;1254;72470;-64
2023/08/10 06:38:37;;;;;;;3.90;2.40;;;;;;;22.71;100.00;100133.95;105251;1254;61537;-63
2023/08/10 06:41:04;;;;;;;7.00;2.50;;;;;;;22.78;100.00;100138.76;104314;1258;60456;-65
2023/08/10 06:43:31;;;;;;;6.60;2.70;;;;;;;22.84;100.00;100136.98;104414;1257;73449;-64
2023/08/10 06:45:58;;;;;;;3.30;2.60;;;;;;;22.87;100.00;100130.98;104289;1269;68235;-65
2023/08/10 06:48:25;;;;;;;6.10;2.40;;;;;;;22.91;100.00;100132.45;104249;1258;73087;-65
2023/08/10 06:50:53;;;;;;;2.20;2.00;;;;;;;22.95;100.00;100138.48;104348;1255;60572;-65
2023/08/10 06:53:21;;;;;;;6.50;2.60;;;;;;;23.02;100.00;100132.73;104315;1254;60472;-64
2023/08/10 06:55:50;;;;;;;3.90;2.00;;;;;;;23.09;100.00;100135.36;104308;1256;74469;-63
2023/08/10 06:58:17;;;;;;;2.60;2.40;;;;;;;23.17;100.00;100136.16;104223;1274;69298;-63
2023/08/10 07:00:47;;;;;;;2.50;2.00;;;;;;;23.23;100.00;100132.38;104290;1254;71965;-62
2023/08/10 07:03:15;;;;;;;3.00;1.80;;;;;;;23.30;100.00;100134.02;104293;1257;60579;-62
2023/08/10 07:05:42;;;;;;;3.50;2.00;;;;;;;23.37;97.81;100135.23;104354;1257;60544;-63
2023/08/10 07:08:09;;;;;;;4.50;2.10;;;;;;;23.43;98.84;100135.24;104370;1269;74349;-63
2023/08/10 07:10:36;;;;;;;2.70;2.20;;;;;;;23.51;98.88;100132.24;107618;1252;69307;-64
2023/08/10 07:13:03;;;;;;;6.10;2.40;;;;;;;23.61;98.59;100131.64;104617;1256;72013;-63
2023/08/10 07:15:32;;;;;;;4.50;3.00;;;;;;;23.69;98.86;100135.20;104461;1251;60425;-62
2023/08/10 07:18:00;;;;;;;4.00;2.30;;;;;;;23.81;98.19;100136.48;104448;1272;60002;-62
2023/08/10 07:20:30;;;;;;;2.30;2.10;;;;;;;23.89;90.27;100132.91;104445;1251;74092;-63
2023/08/10 07:22:57;;;;;;;2.50;1.70;;;;;;;23.98;87.86;100128.03;104427;1274;69672;-64
2023/08/10 07:25:24;;;;;;;3.50;1.80;;;;;;;24.12;84.65;100130.17;104283;1255;72688;-62
2023/08/10 07:27:50;;;;;;;2.40;2.10;;;;;;;24.24;81.20;100133.87;104150;1254;60532;-61
2023/08/10 07:30:17;;;;;;;3.60;1.50;;;;;;;24.37;81.69;100135.73;104176;1263;62180;-64
2023/08/10 07:32:44;;;;;;;2.20;1.70;;;;;;;24.47;74.35;100140.16;104330;1253;72374;-61
2023/08/10 07:35:11;;;;;;;4.00;2.00;;;;;;;24.55;70.72;100135.64;104219;1275;69218;-59
2023/08/10 07:37:41;;;;;;;4.80;1.60;;;;;;;24.57;68.78;100136.00;104392;1256;73320;-61
2023/08/10 07:40:11;;;;;;;3.30;1.50;;;;;;;24.59;69.39;100136.73;104266;1259;60562;-62
2023/08/10 07:42:39;;;;;;;2.90;1.70;;;;;;;24.61;68.56;100138.71;104294;1269;60182;-63
2023/08/10 07:45:09;;;;;;;2.00;1.40;;;;;;;24.64;68.85;100129.41;104372;1251;74284;-63
2023/08/10 07:47:37;;;;;;;1.70;1.60;;;;;;;24.67;66.89;100130.95;104532;1269;69222;-61
2023/08/10 07:50:05;;;;;;;4.70;1.70;;;;;;;24.69;65.55;100131.11;104522;1255;73176;-61
2023/08/10 07:52:33;;;;;;;;;;;;;;;24.74;65.80;100126.74;105018;1251;60477;-63
2023/08/10 07:54:59;;;;;;;2.20;1.50;;;;;;;24.80;65.81;100125.77;104728;1251;60587;-64
2023/08/10 07:57:26;;;;;;;3.80;1.50;;;;;;;24.86;64.88;100126.48;104532;1258;74510;-65
2023/08/10 07:59:53;;;;;;;5.40;1.60;;;;;;;24.96;64.86;100125.14;104607;1251;70139;-62
2023/08/10 08:02:20;;;;;;;2.20;1.70;;;;;;;25.10;63.03;100125.27;104525;1251;71587;-62
2023/08/10 08:04:47;;;;;;;2.50;1.60;;;;;;;25.21;61.86;100115.73;104946;1251;60582;-63
2023/08/10 08:07:15;;;;;;;2.50;1.90;;;;;;;25.29;62.89;100117.67;104265;1264;59955;-62
2023/08/10 08:09:42;;;;;;;2.00;1.80;;;;;;;25.47;62.62;100119.95;104382;1251;73079;-62
2023/08/10 08:12:09;;;;;;;2.50;1.50;;;;;;;25.62;59.58;100114.86;104463;1265;70153;-66
2023/08/10 08:14:36;;;;;;;5.80;1.90;;;;;;;25.74;60.20;100109.77;104409;1256;71477;-64
2023/08/10 08:17:04;;;;;;;3.30;1.50;;;;;;;25.89;58.43;100106.27;104644;1251;60296;-67
2023/08/10 08:19:32;;;;;;;1.60;1.50;;;;;;;26.02;58.20;100103.06;103486;1269;1213029;-66
2023/08/10 08:23:27;;;;;;;3.10;1.70;;;;;;;25.87;58.58;100095.73;101101;1305;615681;-62
2023/08/10 08:25:54;;;;;;;1.70;1.60;;;;;;;26.24;55.72;100095.73;103777;1268;59373;-62
2023/08/10 08:28:22;;;;;;;4.20;2.10;;;;;;;26.31;54.93;100096.82;103960;1269;59809;-67
2023/08/10 08:30:49;;;;;;;3.60;1.80;;;;;;;26.32;54.45;100093.48;104046;1266;72661;-65
2023/08/10 08:33:17;;;;;;;2.10;1.70;;;;;;;26.41;54.58;100097.11;104008;1269;69650;-63
2023/08/10 08:35:47;;;;;;;2.20;1.40;;;;;;;26.51;54.72;100094.70;103664;1279;442544;-60
2023/08/10 08:38:14;;;;;;;1.90;1.80;;;;;;;26.56;54.25;100095.56;104145;1262;59812;-60
2023/08/10 08:40:42;;;;;;;3.50;2.00;;;;;;;26.56;53.33;100094.98;104035;1264;61072;-62
2023/08/10 08:43:09;;;;;;;1.90;1.70;;;;;;;26.58;52.93;100092.80;104261;1262;72666;-62
2023/08/10 08:45:36;;;;;;;2.20;1.50;;;;;;;26.60;52.35;100088.14;104013;1273;69940;-62
2023/08/10 08:48:05;;;;;;;2.80;1.90;;;;;;;26.63;52.43;100090.97;104100;1263;73026;-63
2023/08/10 08:50:32;;;;;;;2.90;1.80;;;;;;;26.63;52.46;100092.35;103962;1261;60254;-60
2023/08/10 08:52:59;;;;;;;5.50;1.90;;;;;;;26.60;49.95;100091.56;103916;1270;59680;-59
2023/08/10 08:55:26;;;;;;;1.80;1.40;;;;;;;26.63;51.61;100088.11;103943;1264;73435;-59
2023/08/10 08:57:53;;;;;;;6.00;1.60;;;;;;;26.62;49.76;100085.06;104033;1263;70102;-62
2023/08/10 09:00:19;;;;;;;3.00;1.80;;;;;;;26.59;49.93;100089.48;104335;1278;72534;-60
2023/08/10 09:02:46;;;;;;;1.90;1.50;;;;;;;26.60;49.91;100089.80;104259;1273;60151;-59
2023/08/10 09:05:14;;;;;;;3.10;1.20;;;;;;;26.66;50.66;100086.84;104240;1276;60438;-61
2023/08/10 09:07:43;;;;;;;5.70;1.50;;;;;;;26.75;50.60;100079.02;104605;1264;73463;-59
2023/08/10 09:10:10;;;;;;;2.60;1.60;;;;;;;26.79;47.39;100077.04;104289;1261;70345;-58
2023/08/10 09:12:39;;;;;;;2.80;1.60;;;;;;;26.81;47.50;100081.66;107844;1256;71207;-61
2023/08/10 09:15:10;;;;;;;2.00;1.70;;;;;;;26.78;48.03;100083.95;105432;1260;59773;-58
2023/08/10 09:17:54;;;;;;;1.50;1.30;;;;;;;26.80;48.15;100075.70;104464;1263;59775;-58
2023/08/10 09:20:25;;;;;;;2.90;1.70;;;;;;;26.90;48.17;100078.02;104349;1263;72798;-59
2023/08/10 09:22:54;;;;;;;2.20;1.60;;;;;;;26.99;47.64;100077.27;104670;1257;70085;-60
2023/08/10 09:25:21;;;;;;;4.50;1.80;;;;;;;27.06;47.02;100076.27;104538;1261;72845;-63
2023/08/10 09:27:48;;;;;;;3.50;1.40;;;;;;;27.01;47.47;100073.52;104508;1270;60794;-59
2023/08/10 09:30:16;;;;;;;;;;;;;;;26.99;47.77;100076.77;104498;1260;59780;-60
2023/08/10 09:32:43;;;;;;;2.10;1.50;;;;;;;26.91;47.16;100075.65;104479;1263;73451;-60
2023/08/10 09:35:14;;;;;;;2.50;1.90;;;;;;;26.83;47.62;100081.60;104567;1273;69393;-59
2023/08/10 09:37:42;;;;;;;2.00;1.80;;;;;;;26.76;47.52;100082.18;105078;1257;72690;-59
2023/08/10 09:40:15;;;;;;;1.50;1.40;;;;;;;26.72;48.37;100088.20;104351;1254;61042;-63
2023/08/10 09:42:42;;;;;;;2.10;1.50;;;;;;;26.66;47.17;100082.93;104663;1264;59981;-59
2023/08/10 09:45:12;;;;;;;2.60;1.70;;;;;;;26.57;46.21;100080.88;104418;1257;72762;-58
2023/08/10 09:47:40;;;;;;;1.60;1.50;;;;;;;26.54;46.75;100079.25;104448;1258;69276;-59
2023/08/10 09:50:09;;;;;;;3.80;1.60;;;;;;;26.52;48.10;100082.14;104379;1257;72385;-59
2023/08/10 09:52:36;;;;;;;1.90;1.80;;;;;;;26.54;47.59;100080.16;104282;1258;59942;-59
2023/08/10 09:55:05;;;;;;;3.60;1.60;;;;;;;26.50;46.65;100073.36;104333;1270;59636;-59
2023/08/10 09:57:32;;;;;;;2.80;1.70;;;;;;;26.50;46.40;100072.48;104522;1253;72782;-60
2023/08/10 09:59:59;;;;;;;4.60;1.50;;;;;;;26.56;46.72;100076.67;104340;1278;69885;-59
2023/08/10 10:02:26;;;;;;;3.60;1.70;;;;;;;26.60;46.06;100069.82;104251;1257;72780;-61
2023/08/10 10:04:54;;;;;;;1.70;1.60;;;;;;;26.62;45.68;100066.93;104347;1273;59762;-61
2023/08/10 10:07:30;;;;;;;3.80;1.50;;;;;;;26.68;45.41;100067.63;104287;1257;59737;-62
2023/08/10 10:09:58;;;;;;;2.20;1.70;;;;;;;26.72;45.81;100064.09;104258;1267;72799;-58
2023/08/10 10:12:25;;;;;;;1.70;1.60;;;;;;;26.84;46.38;100064.86;104313;1255;70093;-58
2023/08/10 10:14:52;;;;;;;2.50;1.60;;;;;;;26.94;44.17;100060.36;104280;1259;73099;-61
2023/08/10 10:17:19;;;;;;;2.00;1.70;;;;;;;26.97;44.38;100058.05;104824;1257;59854;-59
2023/08/10 10:19:48;;;;;;;3.30;1.50;;;;;;;27.04;44.67;100063.06;104552;1255;60024;-62
2023/08/10 10:22:16;;;;;;;1.60;1.30;;;;;;;27.11;44.19;100060.52;104274;1258;73675;-61
2023/08/10 10:24:43;;;;;;;2.90;1.40;;;;;;;27.15;43.42;100063.93;104350;1261;70330;-60
2023/08/10 10:27:13;;;;;;;1.60;1.50;;;;;;;27.11;43.12;100059.65;104439;1257;73211;-63
2023/08/10 10:29:49;;;;;;;2.70;1.80;;;;;;;27.10;43.54;100051.99;105711;1257;59818;-59
2023/08/10 10:32:18;;;;;;;6.70;1.40;;;;;;;27.13;44.36;100055.82;105764;1257;60089;-63
2023/08/10 10:34:45;;;;;;;1.70;1.50;;;;;;;27.21;43.78;100053.19;104371;1261;73320;-65
2023/08/10 10:37:16;;;;;;;1.50;1.30;;;;;;;27.30;43.48;100048.33;104525;1260;70089;-63
2023/08/10 10:39:47;;;;;;;2.70;1.70;;;;;;;27.37;43.29;100040.67;104939;1254;72924;-64
2023/08/10 10:42:15;;;;;;;1.40;1.30;;;;;;;27.44;43.01;100039.14;104802;1266;60087;-61
2023/08/10 10:45:06;;;;;;;2.40;1.30;;;;;;;27.47;42.83;100035.30;104882;1254;60410;-64
2023/08/10 10:47:34;;;;;;;1.80;1.70;;;;;;;27.48;41.86;100032.67;104296;1269;72516;-60
2023/08/10 10:50:19;;;;;;;1.60;1.40;;;;;;;27.47;41.90;100032.27;104304;1260;68650;-61
2023/08/10 10:52:56;;;;;;;5.70;1.90;;;;;;;27.44;42.63;100030.86;104804;1256;72831;-61
2023/08/10 10:55:43;;;;;;;2.20;1.40;;;;;;;27.44;41.66;100033.52;104571;1259;59827;-61
2023/08/10 10:58:12;;;;;;;2.10;1.80;;;;;;;27.50;42.39;100027.10;104360;1261;60476;-60
2023/08/10 11:00:39;;;;;;;4.90;1.70;;;;;;;27.60;41.69;100028.37;104413;1257;73020;-60
2023/08/10 11:03:10;;;;;;;;;;;;;;;27.66;41.83;100020.27;104438;1261;69114;-60
2023/08/10 11:05:37;;;;;;;2.90;1.40;;;;;;;27.79;42.60;100016.94;104553;1254;72741;-60
2023/08/10 11:08:05;;;;;;;3.90;1.60;;;;;;;27.90;42.46;100018.55;104368;1257;60092;-59
2023/08/10 11:10:36;;;;;;;1.60;1.50;;;;;;;27.96;41.28;100011.30;104403;1254;59701;-60
2023/08/10 11:13:04;;;;;;;2.30;2.00;;;;;;;27.98;41.49;100017.45;105484;1254;73479;-61
2023/08/10 11:15:31;;;;;;;;;;;;;;;27.91;39.69;100014.95;108277;1254;69295;-61
2023/08/10 11:17:58;;;;;;;1.70;1.60;;;;;;;27.88;40.27;100014.87;106387;1261;73126;-61